createdAt,value
2023-04-15T00:00:28.670Z,100097.61
2023-04-15T00:01:28.710Z,100103.86
2023-04-15T00:02:28.853Z,100101.05
2023-04-15T00:03:29.011Z,100101.94
2023-04-15T00:04:29.041Z,100101.65
2023-04-15T00:05:31.632Z,100098.95
2023-04-15T00:06:28.755Z,100100.2
2023-04-15T00:07:28.809Z,100098.34
2023-04-15T00:08:28.957Z,100102.19
2023-04-15T00:09:28.812Z,100102.62
2023-04-15T00:10:28.916Z,100099.17
2023-04-15T00:11:28.977Z,100098.97
2023-04-15T00:12:28.902Z,100100.53
2023-04-15T00:13:28.880Z,100101.95
2023-04-15T00:14:29.019Z,100104.89
2023-04-15T00:15:28.956Z,100105.01
2023-04-15T00:16:29.114Z,100106.1
2023-04-15T00:17:29.063Z,100099.76
2023-04-15T00:18:28.974Z,100104.83
2023-04-15T00:19:29.267Z,100095.66
2023-04-15T00:20:29.037Z,100098.66
2023-04-15T00:21:29.120Z,100099.67
2023-04-15T00:22:29.047Z,100105.89
2023-04-15T00:23:29.085Z,100108.62
2023-04-15T00:24:29.078Z,100112.63
2023-04-15T00:25:29.318Z,100114.69
2023-04-15T00:26:29.109Z,100111.36
2023-04-15T00:27:29.151Z,100115
2023-04-15T00:28:29.134Z,100110.05
2023-04-15T00:29:29.162Z,100111.36
2023-04-15T00:30:29.195Z,100115.97
2023-04-15T00:31:29.893Z,100118.2
2023-04-15T00:32:29.232Z,100111.59
2023-04-15T00:33:29.226Z,100116.09
2023-04-15T00:34:29.268Z,100118.27
2023-04-15T00:35:29.585Z,100118.62
2023-04-15T00:36:29.248Z,100118.42
2023-04-15T00:37:29.313Z,100117.08
2023-04-15T00:38:29.471Z,100119.36
2023-04-15T00:39:29.336Z,100118.47
2023-04-15T00:40:29.470Z,100118.67
2023-04-15T00:41:29.495Z,100123.67
2023-04-15T00:42:29.505Z,100122.3
2023-04-15T00:43:29.411Z,100119.27
2023-04-15T00:44:29.419Z,100120.91
2023-04-15T00:45:29.599Z,100119.34
2023-04-15T00:46:30.685Z,100120.55
2023-04-15T00:47:30.234Z,100120.01
2023-04-15T00:48:29.979Z,100118.52
2023-04-15T00:49:29.643Z,100118.83
2023-04-15T00:50:29.543Z,100119.83
2023-04-15T00:51:29.576Z,100123.53
2023-04-15T00:52:29.578Z,100119.23
2023-04-15T00:53:29.554Z,100125.21
2023-04-15T00:54:29.701Z,100122.88
2023-04-15T00:55:29.660Z,100125.64
2023-04-15T00:56:30.014Z,100122.56
2023-04-15T00:57:29.973Z,100123.92
2023-04-15T00:58:29.617Z,100125.17
2023-04-15T00:59:30.732Z,100127.06
2023-04-15T01:00:29.890Z,100124.59
2023-04-15T01:01:29.950Z,100126.8
2023-04-15T01:02:31.232Z,100124.09
2023-04-15T01:03:30.213Z,100123
2023-04-15T01:04:30.272Z,100126.15
2023-04-15T01:05:30.134Z,100128.52
2023-04-15T01:06:30.766Z,100125.77
2023-04-15T01:07:30.079Z,100129.82
2023-04-15T01:08:30.226Z,100129.27
2023-04-15T01:09:29.806Z,100127.88
2023-04-15T01:10:30.873Z,100126.73
2023-04-15T01:11:30.535Z,100130.89
2023-04-15T01:12:32.111Z,100128.71
2023-04-15T01:13:30.252Z,100130.86
2023-04-15T01:14:30.098Z,100126.8
2023-04-15T01:15:30.274Z,100127.7
2023-04-15T01:16:30.072Z,100128.66
2023-04-15T01:17:30.277Z,100125.73
2023-04-15T01:18:30.514Z,100124.11
2023-04-15T01:19:30.405Z,100126.71
2023-04-15T01:20:30.088Z,100125.86
2023-04-15T01:21:29.975Z,100125.67
2023-04-15T01:22:30.229Z,100123.89
2023-04-15T01:23:30.164Z,100120.98
2023-04-15T01:24:30.274Z,100125.99
2023-04-15T01:25:33.886Z,100124.12
2023-04-15T01:26:30.151Z,100126.75
2023-04-15T01:27:30.230Z,100120.98
2023-04-15T01:28:30.278Z,100124.02
2023-04-15T01:29:32.356Z,100123.43
2023-04-15T01:30:33.561Z,100126.97
2023-04-15T01:31:30.246Z,100124.93
2023-04-15T01:32:30.210Z,100124.3
2023-04-15T01:33:30.223Z,100125.17
2023-04-15T01:34:30.214Z,100126.58
2023-04-15T01:35:30.227Z,100125.99
2023-04-15T01:36:30.247Z,100126.16
2023-04-15T01:37:30.471Z,100126.33
2023-04-15T01:38:30.753Z,100125.34
2023-04-15T01:39:30.310Z,100122.94
2023-04-15T01:40:30.317Z,100125.38
2023-04-15T01:41:30.304Z,100127.85
2023-04-15T01:42:30.385Z,100124.07
2023-04-15T01:43:30.585Z,100124.52
2023-04-15T01:44:30.346Z,100125.91
2023-04-15T01:45:30.568Z,100126.82
2023-04-15T01:46:30.408Z,100125.91
2023-04-15T01:47:30.540Z,100124.11
2023-04-15T01:48:30.516Z,100127.71
2023-04-15T01:49:30.444Z,100124.08
2023-04-15T01:50:30.468Z,100127.67
2023-04-15T01:51:30.460Z,100131.22
2023-04-15T01:52:30.502Z,100127.88
2023-04-15T01:53:30.468Z,100125.61
2023-04-15T01:54:30.560Z,100124.61
2023-04-15T01:55:30.519Z,100124.37
2023-04-15T01:56:30.534Z,100128.97
2023-04-15T01:57:30.575Z,100129.3
2023-04-15T01:58:30.568Z,100128.11
2023-04-15T01:59:30.943Z,100130.02
2023-04-15T02:00:30.588Z,100131.34
2023-04-15T02:01:30.703Z,100132.12
2023-04-15T02:02:30.665Z,100130.68
2023-04-15T02:03:30.734Z,100127.2
2023-04-15T02:04:30.655Z,100129.91
2023-04-15T02:05:30.681Z,100134.59
2023-04-15T02:06:30.670Z,100132.02
2023-04-15T02:07:30.692Z,100130.64
2023-04-15T02:08:30.696Z,100129.95
2023-04-15T02:09:30.711Z,100135.03
2023-04-15T02:10:30.753Z,100136.43
2023-04-15T02:11:30.745Z,100137.25
2023-04-15T02:12:30.763Z,100132.09
2023-04-15T02:13:30.774Z,100133.09
2023-04-15T02:14:30.779Z,100134.2
2023-04-15T02:15:30.849Z,100138.73
2023-04-15T02:16:31.006Z,100137.89
2023-04-15T02:17:33.934Z,100139.33
2023-04-15T02:18:30.839Z,100139.87
2023-04-15T02:19:30.855Z,100143.79
2023-04-15T02:20:30.978Z,100141.55
2023-04-15T02:21:30.939Z,100139.12
2023-04-15T02:22:30.890Z,100142.45
2023-04-15T02:23:30.884Z,100141.96
2023-04-15T02:24:30.912Z,100138.61
2023-04-15T02:25:30.929Z,100142.92
2023-04-15T02:26:30.962Z,100141.47
2023-04-15T02:27:31.090Z,100142.33
2023-04-15T02:28:31.086Z,100141.81
2023-04-15T02:29:31.804Z,100140.2
2023-04-15T02:30:31.026Z,100143.52
2023-04-15T02:31:31.097Z,100139.41
2023-04-15T02:32:31.036Z,100145.29
2023-04-15T02:33:31.062Z,100146.58
2023-04-15T02:34:31.064Z,100145.58
2023-04-15T02:35:31.195Z,100147.47
2023-04-15T02:36:31.364Z,100145.64
2023-04-15T02:37:31.706Z,100147.69
2023-04-15T02:38:31.130Z,100146
2023-04-15T02:39:31.150Z,100148.12
2023-04-15T02:40:31.171Z,100141.02
2023-04-15T02:41:31.226Z,100145.7
2023-04-15T02:42:31.206Z,100142.27
2023-04-15T02:43:31.192Z,100147.66
2023-04-15T02:44:31.594Z,100148.72
2023-04-15T02:45:31.222Z,100143.81
2023-04-15T02:46:31.250Z,100145.27
2023-04-15T02:47:31.375Z,100145.06
2023-04-15T02:48:31.299Z,100144.42
2023-04-15T02:49:31.255Z,100141.75
2023-04-15T02:50:31.333Z,100148.53
2023-04-15T02:51:31.344Z,100150.27
2023-04-15T02:52:31.357Z,100148.48
2023-04-15T02:53:31.293Z,100145.29
2023-04-15T02:54:31.352Z,100149.15
2023-04-15T02:55:31.509Z,100150.11
2023-04-15T02:56:31.377Z,100150.75
2023-04-15T02:57:31.391Z,100150.23
2023-04-15T02:58:31.391Z,100150.36
2023-04-15T02:59:31.413Z,100150.89
2023-04-15T03:00:31.428Z,100150.26
2023-04-15T03:01:31.498Z,100148.47
2023-04-15T03:02:35.095Z,100150.84
2023-04-15T03:03:31.527Z,100155.35
2023-04-15T03:04:31.498Z,100155.92
2023-04-15T03:05:31.797Z,100151.3
2023-04-15T03:06:31.528Z,100152.06
2023-04-15T03:07:31.666Z,100156.41
2023-04-15T03:08:31.592Z,100154.59
2023-04-15T03:09:31.566Z,100155.14
2023-04-15T03:10:31.558Z,100158.38
2023-04-15T03:11:32.255Z,100157.95
2023-04-15T03:12:31.613Z,100162.68
2023-04-15T03:13:31.585Z,100163.01
2023-04-15T03:14:31.622Z,100163.3
2023-04-15T03:15:32.745Z,100165.16
2023-04-15T03:16:31.628Z,100164.17
2023-04-15T03:17:31.864Z,100166.39
2023-04-15T03:18:31.680Z,100166.54
2023-04-15T03:19:31.739Z,100165.86
2023-04-15T03:20:31.827Z,100169.84
2023-04-15T03:21:31.665Z,100170.66
2023-04-15T03:22:31.901Z,100172.94
2023-04-15T03:23:32.016Z,100166.92
2023-04-15T03:24:31.783Z,100171.03
2023-04-15T03:25:31.772Z,100173.23
2023-04-15T03:26:31.975Z,100179.02
2023-04-15T03:27:31.796Z,100174.81
2023-04-15T03:28:31.824Z,100176.04
2023-04-15T03:29:31.849Z,100175.69
2023-04-15T03:30:31.844Z,100177.38
2023-04-15T03:31:31.862Z,100174.7
2023-04-15T03:32:32.532Z,100180.14
2023-04-15T03:33:32.499Z,100182.12
2023-04-15T03:34:32.608Z,100185.67
2023-04-15T03:35:32.593Z,100184.73
2023-04-15T03:36:32.739Z,100183.66
2023-04-15T03:37:32.576Z,100183.66
2023-04-15T03:38:32.570Z,100181.42
2023-04-15T03:39:32.601Z,100184.23
2023-04-15T03:40:32.959Z,100182.77
2023-04-15T03:41:32.640Z,100186.16
2023-04-15T03:42:32.623Z,100186.14
2023-04-15T03:43:32.761Z,100188.52
2023-04-15T03:44:32.695Z,100186.61
2023-04-15T03:45:32.962Z,100189.38
2023-04-15T03:46:32.802Z,100189.99
2023-04-15T03:47:32.784Z,100188.83
2023-04-15T03:48:32.749Z,100184.62
2023-04-15T03:49:32.860Z,100191.17
2023-04-15T03:50:32.742Z,100191.02
2023-04-15T03:51:32.756Z,100187.76
2023-04-15T03:52:32.789Z,100187.88
2023-04-15T03:53:32.819Z,100188.98
2023-04-15T03:54:32.823Z,100192.52
2023-04-15T03:55:32.829Z,100190.25
2023-04-15T03:56:32.833Z,100196.12
2023-04-15T03:57:32.851Z,100192.53
2023-04-15T03:58:32.882Z,100188.06
2023-04-15T03:59:32.858Z,100189.27
2023-04-15T04:00:32.958Z,100192.79
2023-04-15T04:01:32.923Z,100193.43
2023-04-15T04:02:33.076Z,100189.08
2023-04-15T04:03:33.029Z,100192.56
2023-04-15T04:04:33.074Z,100193.96
2023-04-15T04:05:33.131Z,100194.25
2023-04-15T04:06:33.227Z,100196.04
2023-04-15T04:07:32.966Z,100195.36
2023-04-15T04:08:32.991Z,100197.5
2023-04-15T04:09:32.997Z,100194.14
2023-04-15T04:10:33.014Z,100193.38
2023-04-15T04:11:33.046Z,100191.35
2023-04-15T04:12:33.021Z,100194.79
2023-04-15T04:13:33.054Z,100194.09
2023-04-15T04:14:33.066Z,100195.61
2023-04-15T04:15:33.124Z,100198.26
2023-04-15T04:16:33.147Z,100197
2023-04-15T04:17:33.351Z,100199.48
2023-04-15T04:18:33.143Z,100197.78
2023-04-15T04:19:33.150Z,100196.86
2023-04-15T04:20:33.431Z,100199.16
2023-04-15T04:21:33.802Z,100197.42
2023-04-15T04:22:37.531Z,100201.69
2023-04-15T04:23:33.737Z,100197.91
2023-04-15T04:24:33.744Z,100200.22
2023-04-15T04:25:33.741Z,100197.16
2023-04-15T04:26:33.943Z,100196.67
2023-04-15T04:27:34.131Z,100191.96
2023-04-15T04:28:33.848Z,100199.18
2023-04-15T04:29:33.820Z,100199.34
2023-04-15T04:30:35.284Z,100195.34
2023-04-15T04:31:33.917Z,100199.47
2023-04-15T04:32:33.916Z,100205.16
2023-04-15T04:33:34.038Z,100199.94
2023-04-15T04:34:33.905Z,100200.53
2023-04-15T04:35:33.868Z,100201.61
2023-04-15T04:36:34.056Z,100199.33
2023-04-15T04:37:33.926Z,100202.81
2023-04-15T04:38:33.965Z,100202.27
2023-04-15T04:39:33.973Z,100200.95
2023-04-15T04:40:34.053Z,100198.77
2023-04-15T04:41:33.990Z,100203.02
2023-04-15T04:42:34.009Z,100201.89
2023-04-15T04:43:33.968Z,100204.03
2023-04-15T04:44:34.011Z,100203.86
2023-04-15T04:45:34.069Z,100201.84
2023-04-15T04:46:34.043Z,100204.11
2023-04-15T04:47:34.109Z,100203.87
2023-04-15T04:48:34.062Z,100203.44
2023-04-15T04:49:34.083Z,100203.44
2023-04-15T04:50:34.761Z,100203.16
2023-04-15T04:51:34.254Z,100204.02
2023-04-15T04:52:34.220Z,100200.55
2023-04-15T04:53:34.586Z,100200.73
2023-04-15T04:54:34.144Z,100204.92
2023-04-15T04:55:34.177Z,100203.09
2023-04-15T04:56:34.186Z,100204.45
2023-04-15T04:57:34.425Z,100205.5
2023-04-15T04:58:34.217Z,100205.42
2023-04-15T04:59:34.183Z,100211.45
2023-04-15T05:00:34.414Z,100204.5
2023-04-15T05:01:34.359Z,100202.72
2023-04-15T05:02:34.557Z,100208.7
2023-04-15T05:03:34.351Z,100207.81
2023-04-15T05:04:34.256Z,100207.73
2023-04-15T05:05:34.353Z,100208.08
2023-04-15T05:06:34.329Z,100209.09
2023-04-15T05:07:34.443Z,100207.09
2023-04-15T05:08:34.425Z,100211.25
2023-04-15T05:09:34.388Z,100208.66
2023-04-15T05:10:34.405Z,100207.9
2023-04-15T05:11:34.390Z,100210.47
2023-04-15T05:12:35.345Z,100211.22
2023-04-15T05:13:34.380Z,100206.18
2023-04-15T05:14:34.530Z,100211.05
2023-04-15T05:15:34.467Z,100210.62
2023-04-15T05:16:34.449Z,100208.42
2023-04-15T05:17:34.674Z,100206.27
2023-04-15T05:18:34.531Z,100209.03
2023-04-15T05:19:34.513Z,100207.86
2023-04-15T05:20:34.535Z,100202.25
2023-04-15T05:21:34.498Z,100207.63
2023-04-15T05:22:34.596Z,100203.21
2023-04-15T05:23:34.602Z,100204.3
2023-04-15T05:24:34.594Z,100207.32
2023-04-15T05:25:34.578Z,100209.17
2023-04-15T05:26:34.589Z,100207.63
2023-04-15T05:27:34.617Z,100201.38
2023-04-15T05:28:34.636Z,100206.45
2023-04-15T05:29:34.622Z,100207.73
2023-04-15T05:30:34.679Z,100205.2
2023-04-15T05:31:34.859Z,100207.36
2023-04-15T05:32:34.753Z,100209.67
2023-04-15T05:33:34.714Z,100208.83
2023-04-15T05:34:34.707Z,100207.42
2023-04-15T05:35:34.727Z,100204.06
2023-04-15T05:36:34.700Z,100208.98
2023-04-15T05:37:34.789Z,100204.84
2023-04-15T05:38:34.773Z,100203.06
2023-04-15T05:39:34.715Z,100204.23
2023-04-15T05:40:34.760Z,100201.48
2023-04-15T05:41:34.794Z,100204.83
2023-04-15T05:42:35.085Z,100201.55
2023-04-15T05:43:34.800Z,100205.86
2023-04-15T05:44:34.819Z,100203.29
2023-04-15T05:45:34.832Z,100208.98
2023-04-15T05:46:34.881Z,100204.02
2023-04-15T05:47:37.865Z,100202.25
2023-04-15T05:48:34.848Z,100203.14
2023-04-15T05:49:34.901Z,100201.8
2023-04-15T05:50:35.051Z,100200.66
2023-04-15T05:51:34.960Z,100197.09
2023-04-15T05:52:35.192Z,100196.98
2023-04-15T05:53:34.958Z,100196.98
2023-04-15T05:54:35.020Z,100195.88
2023-04-15T05:55:34.983Z,100200.41
2023-04-15T05:56:34.984Z,100196.41
2023-04-15T05:57:35.017Z,100200.03
2023-04-15T05:58:35.325Z,100198.02
2023-04-15T05:59:35.044Z,100196.17
2023-04-15T06:00:35.085Z,100195.49
2023-04-15T06:01:35.162Z,100193.62
2023-04-15T06:02:35.276Z,100190.31
2023-04-15T06:03:35.196Z,100192.72
2023-04-15T06:04:35.258Z,100193.98
2023-04-15T06:05:35.126Z,100195.71
2023-04-15T06:06:35.104Z,100195.25
2023-04-15T06:07:35.920Z,100195.11
2023-04-15T06:08:35.156Z,100199.31
2023-04-15T06:09:35.379Z,100196.41
2023-04-15T06:10:35.772Z,100199.73
2023-04-15T06:11:35.196Z,100195.69
2023-04-15T06:12:35.362Z,100195.93
2023-04-15T06:13:35.220Z,100196.59
2023-04-15T06:14:35.235Z,100201.2
2023-04-15T06:15:35.280Z,100201.11
2023-04-15T06:16:35.365Z,100203.59
2023-04-15T06:17:35.399Z,100204.67
2023-04-15T06:18:35.259Z,100204.12
2023-04-15T06:19:35.776Z,100201.23
2023-04-15T06:20:35.477Z,100209.28
2023-04-15T06:21:35.364Z,100208.08
2023-04-15T06:22:36.744Z,100207.95
2023-04-15T06:23:35.596Z,100213.02
2023-04-15T06:24:35.369Z,100208
2023-04-15T06:25:35.573Z,100209.34
2023-04-15T06:26:35.406Z,100213.95
2023-04-15T06:27:35.435Z,100211.48
2023-04-15T06:28:35.439Z,100211.14
2023-04-15T06:29:35.425Z,100214.34
2023-04-15T06:30:35.502Z,100219.41
2023-04-15T06:31:35.506Z,100210.69
2023-04-15T06:32:35.595Z,100207.71
2023-04-15T06:33:35.482Z,100211.55
2023-04-15T06:34:35.502Z,100209.77
2023-04-15T06:35:35.530Z,100207.34
2023-04-15T06:36:35.527Z,100210.69
2023-04-15T06:37:35.552Z,100212.2
2023-04-15T06:38:35.552Z,100214.94
2023-04-15T06:39:35.576Z,100216.72
2023-04-15T06:40:35.740Z,100213.09
2023-04-15T06:41:35.890Z,100212.41
2023-04-15T06:42:35.946Z,100216.29
2023-04-15T06:43:35.677Z,100211.31
2023-04-15T06:44:36.072Z,100213.13
2023-04-15T06:45:35.702Z,100207.56
2023-04-15T06:46:35.734Z,100202.88
2023-04-15T06:47:35.736Z,100207.72
2023-04-15T06:48:35.710Z,100202.72
2023-04-15T06:49:35.738Z,100206.62
2023-04-15T06:50:35.813Z,100208.64
2023-04-15T06:51:35.894Z,100208.77
2023-04-15T06:52:35.891Z,100201.92
2023-04-15T06:53:35.817Z,100204.61
2023-04-15T06:54:35.897Z,100207.3
2023-04-15T06:55:35.821Z,100206.16
2023-04-15T06:56:36.009Z,100206.38
2023-04-15T06:57:35.885Z,100207.5
2023-04-15T06:58:35.892Z,100208.65
2023-04-15T06:59:35.903Z,100212.42
2023-04-15T07:00:35.939Z,100206.06
2023-04-15T07:01:36.146Z,100205.11
2023-04-15T07:02:36.139Z,100209.48
2023-04-15T07:03:35.981Z,100209.05
2023-04-15T07:04:36.121Z,100216.45
2023-04-15T07:05:35.978Z,100213.59
2023-04-15T07:06:36.180Z,100211.52
2023-04-15T07:07:36.027Z,100211.6
2023-04-15T07:08:36.068Z,100217.53
2023-04-15T07:09:36.072Z,100214.99
2023-04-15T07:10:36.236Z,100219.14
2023-04-15T07:11:36.223Z,100219.47
2023-04-15T07:12:36.113Z,100218.1
2023-04-15T07:13:36.104Z,100218.08
2023-04-15T07:14:36.113Z,100218.12
2023-04-15T07:15:36.181Z,100214.03
2023-04-15T07:16:36.223Z,100217.18
2023-04-15T07:17:36.322Z,100216.4
2023-04-15T07:18:36.240Z,100218.89
2023-04-15T07:19:36.228Z,100209.47
2023-04-15T07:20:36.245Z,100214.52
2023-04-15T07:21:36.283Z,100210.09
2023-04-15T07:22:36.315Z,100211.94
2023-04-15T07:23:36.286Z,100211.91
2023-04-15T07:24:36.301Z,100212.97
2023-04-15T07:25:36.355Z,100213.57
2023-04-15T07:26:36.357Z,100217.84
2023-04-15T07:27:36.402Z,100219.41
2023-04-15T07:28:36.371Z,100215.31
2023-04-15T07:29:36.409Z,100215.62
2023-04-15T07:30:36.606Z,100217.11
2023-04-15T07:31:36.487Z,100218.45
2023-04-15T07:32:36.480Z,100216.36
2023-04-15T07:33:36.421Z,100218.2
2023-04-15T07:34:36.454Z,100218.09
2023-04-15T07:35:36.494Z,100221.33
2023-04-15T07:36:36.483Z,100218.13
2023-04-15T07:37:36.560Z,100215.74
2023-04-15T07:38:36.520Z,100218.88
2023-04-15T07:39:36.741Z,100220
2023-04-15T07:40:36.587Z,100219.74
2023-04-15T07:41:36.582Z,100218.08
2023-04-15T07:42:36.607Z,100218.62
2023-04-15T07:43:36.603Z,100221.77
2023-04-15T07:44:36.637Z,100223.02
2023-04-15T07:45:36.610Z,100219.83
2023-04-15T07:46:36.751Z,100225.29
2023-04-15T07:47:36.834Z,100217.55
2023-04-15T07:48:37.567Z,100221.42
2023-04-15T07:49:36.694Z,100218.97
2023-04-15T07:50:36.755Z,100216
2023-04-15T07:51:36.750Z,100221.03
2023-04-15T07:52:36.757Z,100221.45
2023-04-15T07:53:36.778Z,100217.51
2023-04-15T07:54:36.775Z,100220.47
2023-04-15T07:55:36.793Z,100215.84
2023-04-15T07:56:36.799Z,100213.03
2023-04-15T07:57:37.054Z,100215.87
2023-04-15T07:58:36.860Z,100220.27
2023-04-15T07:59:36.864Z,100212.92
2023-04-15T08:00:36.969Z,100214.42
2023-04-15T08:01:37.136Z,100217.86
2023-04-15T08:02:38.305Z,100221.52
2023-04-15T08:03:37.121Z,100219.2
2023-04-15T08:04:37.088Z,100223.6
2023-04-15T08:05:36.944Z,100220.72
2023-04-15T08:06:36.965Z,100224.14
2023-04-15T08:07:37.746Z,100222.47
2023-04-15T08:08:37.020Z,100231.9
2023-04-15T08:09:37.051Z,100224.56
2023-04-15T08:10:37.551Z,100225.73
2023-04-15T08:11:37.062Z,100225.92
2023-04-15T08:12:37.111Z,100230.69
2023-04-15T08:13:37.244Z,100230.95
2023-04-15T08:14:37.107Z,100223.24
2023-04-15T08:15:37.117Z,100226.78
2023-04-15T08:16:37.282Z,100220.98
2023-04-15T08:17:37.357Z,100224.94
2023-04-15T08:18:37.185Z,100221.52
2023-04-15T08:19:37.193Z,100215.61
2023-04-15T08:20:37.236Z,100221.73
2023-04-15T08:21:37.351Z,100217.13
2023-04-15T08:22:37.270Z,100223.02
2023-04-15T08:23:37.529Z,100213.28
2023-04-15T08:24:37.293Z,100213.52
2023-04-15T08:25:37.275Z,100215.8
2023-04-15T08:26:37.269Z,100213.19
2023-04-15T08:27:37.316Z,100216.23
2023-04-15T08:28:40.850Z,100222.58
2023-04-15T08:29:37.336Z,100217.6
2023-04-15T08:30:37.341Z,100212.55
2023-04-15T08:31:37.417Z,100212.89
2023-04-15T08:32:37.473Z,100208.55
2023-04-15T08:33:37.394Z,100210.5
2023-04-15T08:34:37.405Z,100209.56
2023-04-15T08:35:37.438Z,100207.23
2023-04-15T08:36:37.467Z,100213.08
2023-04-15T08:37:37.444Z,100217.75
2023-04-15T08:38:37.485Z,100220.3
2023-04-15T08:39:37.503Z,100218.91
2023-04-15T08:40:41.309Z,100214.51
2023-04-15T08:42:45.027Z,100211.62
2023-04-15T08:44:43.057Z,100220.09
2023-04-15T08:45:43.954Z,100220.25
2023-04-15T08:46:42.895Z,100216.81
2023-04-15T08:47:43.084Z,100222.48
2023-04-15T08:48:43.242Z,100214.87
2023-04-15T08:49:43.308Z,100218.07
2023-04-15T08:50:43.256Z,100229.17
2023-04-15T08:51:43.384Z,100226.67
2023-04-15T08:52:43.086Z,100215.55
2023-04-15T08:53:43.890Z,100229.61
2023-04-15T08:54:43.075Z,100220.33
2023-04-15T08:55:44.301Z,100225.08
2023-04-15T08:56:43.005Z,100225.7
2023-04-15T08:57:43.048Z,100220.55
2023-04-15T08:58:43.959Z,100214.56
2023-04-15T08:59:43.722Z,100217.23
2023-04-15T09:00:43.564Z,100217.91
2023-04-15T09:01:43.990Z,100213.09
2023-04-15T09:02:43.871Z,100222.02
2023-04-15T09:03:43.854Z,100216.81
2023-04-15T09:04:43.620Z,100221.81
2023-04-15T09:05:43.881Z,100217.39
2023-04-15T09:06:43.674Z,100217.83
2023-04-15T09:07:43.781Z,100220.3
2023-04-15T09:08:43.873Z,100218.97
2023-04-15T09:09:43.745Z,100219.67
2023-04-15T09:10:43.741Z,100217.91
2023-04-15T09:11:43.778Z,100214.41
2023-04-15T09:12:43.833Z,100213.23
2023-04-15T09:13:44.211Z,100214.7
2023-04-15T09:14:45.572Z,100213.27
2023-04-15T09:15:43.820Z,100219.12
2023-04-15T09:17:46.700Z,100217.62
2023-04-15T09:18:46.289Z,100215.14
2023-04-15T09:19:46.286Z,100215.44
2023-04-15T09:20:46.323Z,100213.07
2023-04-15T09:21:47.643Z,100215.05
2023-04-15T09:22:47.373Z,100216.25
2023-04-15T09:24:50.227Z,100214.53
2023-04-15T09:25:50.580Z,100215.23
2023-04-15T09:26:53.885Z,100209.45
2023-04-15T09:27:50.601Z,100216.42
2023-04-15T09:28:50.312Z,100208.19
2023-04-15T09:29:50.474Z,100215.84
2023-04-15T09:30:51.508Z,100206.94
2023-04-15T09:31:50.372Z,100210.38
2023-04-15T09:32:57.629Z,100209.88
2023-04-15T09:33:54.930Z,100211.91
2023-04-15T09:34:53.915Z,100213.66
2023-04-15T09:36:01.403Z,100205.23
2023-04-15T09:36:57.692Z,100212.72
2023-04-15T09:38:05.220Z,100209.53
2023-04-15T09:39:01.544Z,100208.93
2023-04-15T09:40:01.472Z,100202.93
2023-04-15T09:41:01.457Z,100211.83
2023-04-15T09:42:04.797Z,100210.33
2023-04-15T09:43:01.962Z,100204.44
2023-04-15T09:44:01.859Z,100198.2
2023-04-15T09:45:11.161Z,100200.95
2023-04-15T09:46:02.421Z,100203.66
2023-04-15T09:47:02.475Z,100203.69
2023-04-15T09:49:08.936Z,100209.41
2023-04-15T09:50:06.100Z,100203.38
2023-04-15T09:51:05.760Z,100202.72
2023-04-15T09:52:06.644Z,100199.56
2023-04-15T09:53:05.689Z,100202.59
2023-04-15T09:54:05.731Z,100205.42
2023-04-15T09:55:06.223Z,100203.08
2023-04-15T09:56:06.100Z,100205.38
2023-04-15T09:57:06.924Z,100204.05
2023-04-15T09:58:09.315Z,100204.57
2023-04-15T09:59:06.082Z,100199.57
2023-04-15T10:00:07.289Z,100200.8
2023-04-15T10:01:06.178Z,100204.02
2023-04-15T10:02:06.543Z,100196.7
2023-04-15T10:03:06.471Z,100199.69
2023-04-15T10:04:07.099Z,100192.62
2023-04-15T10:05:06.749Z,100197.48
2023-04-15T10:06:06.568Z,100194.56
2023-04-15T10:07:07.217Z,100187.02
2023-04-15T10:08:06.415Z,100184.2
2023-04-15T10:09:06.876Z,100186.84
2023-04-15T10:10:06.808Z,100178.57
2023-04-15T10:11:06.649Z,100187.33
2023-04-15T10:12:06.499Z,100184.33
2023-04-15T10:13:06.972Z,100190.12
2023-04-15T10:14:08.415Z,100190.77
2023-04-15T10:15:07.454Z,100187.44
2023-04-15T10:16:15.029Z,100181.64
2023-04-15T10:17:07.673Z,100182.07
2023-04-15T10:18:08.144Z,100190.81
2023-04-15T10:19:07.285Z,100185.75
2023-04-15T10:20:07.806Z,100185.94
2023-04-15T10:21:08.451Z,100190.99
2023-04-15T10:22:07.593Z,100187.2
2023-04-15T10:23:09.479Z,100177.07
2023-04-15T10:24:07.330Z,100183.17
2023-04-15T10:25:07.471Z,100180.38
2023-04-15T10:26:07.544Z,100184.93
2023-04-15T10:27:07.898Z,100187.23
2023-04-15T10:28:07.485Z,100177.16
2023-04-15T10:29:08.012Z,100186.16
2023-04-15T10:30:08.173Z,100188.78
2023-04-15T10:31:07.678Z,100178.44
2023-04-15T10:32:07.699Z,100173.62
2023-04-15T10:33:09.093Z,100176.99
2023-04-15T10:34:07.513Z,100174.69
2023-04-15T10:35:08.027Z,100176.74
2023-04-15T10:36:07.640Z,100180.83
2023-04-15T10:37:09.488Z,100177.64
2023-04-15T10:41:21.892Z,100177.34
2023-04-15T10:42:19.358Z,100171.8
2023-04-15T10:43:25.055Z,100174.69
2023-04-15T10:44:21.765Z,100178.16
2023-04-15T10:45:21.823Z,100179.53
2023-04-15T10:46:23.243Z,100180.03
2023-04-15T10:47:22.256Z,100182.89
2023-04-15T10:48:21.879Z,100181.55
2023-04-15T10:49:25.732Z,100187.09
2023-04-15T10:50:22.446Z,100182.99
2023-04-15T10:51:31.332Z,100184.25
2023-04-15T10:52:24.123Z,100188.66
2023-04-15T10:53:29.678Z,100183.14
2023-04-15T10:54:35.311Z,100192.34
2023-04-15T10:55:27.228Z,100184.82
2023-04-15T10:56:29.983Z,100190.08
2023-04-15T10:57:34.056Z,100193.72
2023-04-15T10:58:40.929Z,100187.08
2023-04-15T10:59:33.146Z,100190.62
2023-04-15T11:00:33.099Z,100182.88
2023-04-15T11:03:40.443Z,100179.14
2023-04-15T11:06:43.863Z,100186.28
2023-04-15T11:07:41.437Z,100183.25
2023-04-15T11:09:42.604Z,100187.92
2023-04-15T11:10:52.272Z,100181.55
2023-04-15T11:12:51.668Z,100182.05
2023-04-15T11:13:49.549Z,100178.07
2023-04-15T11:14:48.865Z,100177.48
2023-04-15T11:15:49.570Z,100187.59
2023-04-15T11:16:48.896Z,100181.41
2023-04-15T11:17:48.918Z,100181.7
2023-04-15T11:18:55.726Z,100183.93
2023-04-15T11:19:52.477Z,100187.09
2023-04-15T11:20:56.591Z,100191.62
2023-04-15T11:21:53.317Z,100185.69
2023-04-15T11:23:14.729Z,100189.03
2023-04-15T11:23:55.017Z,100178.71
2023-04-15T11:24:55.095Z,100185.8
2023-04-15T11:25:55.335Z,100183.52
2023-04-15T11:26:57.927Z,100181.72
2023-04-15T11:27:55.565Z,100190.78
2023-04-15T11:28:55.116Z,100185.47
2023-04-15T11:29:55.118Z,100188.95
2023-04-15T11:30:55.655Z,100178.69
2023-04-15T11:32:59.146Z,100191.17
2023-04-15T11:33:59.297Z,100184.71
2023-04-15T11:34:58.175Z,100192.3
2023-04-15T11:35:58.724Z,100187.62
2023-04-15T11:36:58.203Z,100189.2
2023-04-15T11:37:58.306Z,100193.64
2023-04-15T11:38:58.807Z,100184.26
2023-04-15T11:39:58.243Z,100183.93
2023-04-15T11:40:58.443Z,100188.47
2023-04-15T11:41:58.231Z,100188.02
2023-04-15T11:44:01.399Z,100172.96